Metar z pełnej godziny Komunikat METAR ze strony awiacja.imgw.pl Metar G00 EPKK METAR EPKK 230900Z 28010KT 9999 SCT020TCU SCT067 07/02 Q1022 =